createdAt,value
2022-09-21T00:01:45.425Z,1.60
2022-09-21T00:04:13.255Z,1.30
2022-09-21T00:06:41.021Z,1.50
2022-09-21T00:09:09.409Z,1.63
2022-09-21T00:11:38.577Z,1.07
2022-09-21T00:14:10.329Z,1.70
2022-09-21T00:16:38.580Z,1.40
2022-09-21T00:19:06.573Z,1.80
2022-09-21T00:21:34.820Z,1.47
2022-09-21T00:24:03.503Z,1.70
2022-09-21T00:26:32.105Z,1.30
2022-09-21T00:29:03.260Z,1.27
2022-09-21T00:31:32.126Z,1.27
2022-09-21T00:34:00.912Z,1.73
2022-09-21T00:36:29.226Z,1.67
2022-09-21T00:38:58.875Z,1.37
2022-09-21T00:41:27.949Z,1.43
2022-09-21T00:44:29.814Z,1.90
2022-09-21T00:47:02.268Z,1.50
2022-09-21T00:49:30.833Z,1.70
2022-09-21T00:52:00.288Z,1.50
2022-09-21T00:54:31.055Z,1.90
2022-09-21T00:57:01.225Z,2.00
2022-09-21T00:59:32.111Z,1.40
2022-09-21T01:02:00.409Z,1.57
2022-09-21T01:04:29.189Z,2.17
2022-09-21T01:06:57.823Z,2.03
2022-09-21T01:09:26.034Z,2.20
2022-09-21T01:12:08.672Z,2.00
2022-09-21T01:14:57.815Z,1.73
2022-09-21T01:17:35.993Z,1.93
2022-09-21T01:20:31.377Z,1.60
2022-09-21T01:23:13.285Z,1.63
2022-09-21T01:25:52.149Z,1.67
2022-09-21T01:28:32.185Z,1.53
2022-09-21T01:31:05.898Z,1.70
2022-09-21T01:33:38.416Z,1.80
2022-09-21T01:36:11.872Z,2.07
2022-09-21T01:38:43.249Z,1.80
2022-09-21T01:41:14.393Z,1.73
2022-09-21T01:43:46.232Z,1.50
2022-09-21T01:46:18.791Z,1.80
2022-09-21T01:48:50.544Z,2.00
2022-09-21T01:51:21.068Z,2.23
2022-09-21T01:53:53.723Z,2.13
2022-09-21T01:56:25.060Z,1.60
2022-09-21T01:59:02.297Z,1.30
2022-09-21T02:01:35.512Z,1.53
2022-09-21T02:04:06.586Z,1.63
2022-09-21T02:06:34.569Z,1.60
2022-09-21T02:09:02.407Z,1.50
2022-09-21T02:11:30.160Z,1.87
2022-09-21T02:13:57.953Z,2.07
2022-09-21T02:16:39.567Z,1.87
2022-09-21T02:19:15.004Z,2.00
2022-09-21T02:21:54.917Z,2.07
2022-09-21T02:24:29.554Z,1.80
2022-09-21T02:27:04.936Z,2.47
2022-09-21T02:29:43.164Z,1.80
2022-09-21T02:32:19.057Z,2.10
2022-09-21T02:34:50.348Z,1.80
2022-09-21T02:37:25.164Z,2.07
2022-09-21T02:39:59.503Z,2.50
2022-09-21T02:42:30.696Z,1.50
2022-09-21T02:45:04.274Z,1.97
2022-09-21T02:47:37.545Z,1.80
2022-09-21T02:50:10.578Z,1.70
2022-09-21T02:52:42.436Z,1.93
2022-09-21T02:55:11.529Z,1.80
2022-09-21T02:57:39.696Z,1.53
2022-09-21T03:00:08.883Z,1.90
2022-09-21T03:02:39.333Z,1.77
2022-09-21T03:05:08.140Z,1.80
2022-09-21T03:07:35.929Z,2.03
2022-09-21T03:10:04.566Z,1.63
2022-09-21T03:12:32.654Z,1.90
2022-09-21T03:15:00.712Z,1.83
2022-09-21T03:17:28.709Z,1.77
2022-09-21T03:19:57.965Z,2.13
2022-09-21T03:22:25.805Z,1.83
2022-09-21T03:24:57.433Z,1.60
2022-09-21T03:27:25.459Z,1.57
2022-09-21T03:29:53.472Z,1.60
2022-09-21T03:32:21.207Z,1.80
2022-09-21T03:34:48.981Z,2.40
2022-09-21T03:37:18.080Z,1.40
2022-09-21T03:39:47.207Z,2.00
2022-09-21T03:42:14.957Z,2.10
2022-09-21T03:44:43.032Z,2.20
2022-09-21T03:47:10.801Z,1.63
2022-09-21T03:49:38.782Z,1.70
2022-09-21T03:52:06.604Z,1.70
2022-09-21T03:54:35.754Z,1.90
2022-09-21T03:57:03.527Z,1.77
2022-09-21T03:59:31.264Z,1.70
2022-09-21T04:01:59.033Z,2.43
2022-09-21T04:04:26.812Z,1.83
2022-09-21T04:06:54.541Z,1.40
2022-09-21T04:09:22.281Z,2.07
2022-09-21T04:11:52.238Z,1.63
2022-09-21T04:14:20.039Z,2.00
2022-09-21T04:16:47.778Z,1.80
2022-09-21T04:19:16.540Z,2.20
2022-09-21T04:21:44.316Z,1.30
2022-09-21T04:24:12.052Z,1.57
2022-09-21T04:26:41.017Z,1.63
2022-09-21T04:29:15.223Z,1.70
2022-09-21T04:31:43.568Z,1.83
2022-09-21T04:34:14.280Z,1.70
2022-09-21T04:36:42.069Z,2.10
2022-09-21T04:39:09.924Z,1.83
2022-09-21T04:41:37.646Z,1.70
2022-09-21T04:44:05.529Z,1.90
2022-09-21T04:46:34.827Z,2.17
2022-09-21T04:49:02.568Z,1.57
2022-09-21T04:51:31.470Z,1.90
2022-09-21T04:53:59.334Z,1.77
2022-09-21T04:56:27.045Z,2.30
2022-09-21T04:58:54.929Z,2.10
2022-09-21T05:01:22.727Z,2.00
2022-09-21T05:03:51.938Z,2.10
2022-09-21T05:06:19.760Z,1.37
2022-09-21T05:09:04.875Z,1.93
2022-09-21T05:11:33.420Z,1.70
2022-09-21T05:14:01.201Z,1.93
2022-09-21T05:16:28.946Z,2.07
2022-09-21T05:18:58.119Z,2.03
2022-09-21T05:21:26.001Z,2.00
2022-09-21T05:23:53.783Z,1.87
2022-09-21T05:26:21.547Z,2.23
2022-09-21T05:28:49.848Z,1.63
2022-09-21T05:31:31.576Z,2.10
2022-09-21T05:34:08.000Z,2.00
2022-09-21T05:36:49.448Z,1.83
2022-09-21T05:39:17.708Z,1.87
2022-09-21T05:41:45.992Z,2.13
2022-09-21T05:44:15.248Z,2.60
2022-09-21T05:46:52.687Z,2.30
2022-09-21T05:49:35.426Z,2.30
2022-09-21T05:52:12.848Z,1.93
2022-09-21T05:54:52.197Z,2.60
2022-09-21T05:57:30.971Z,1.93
2022-09-21T06:00:10.916Z,2.23
2022-09-21T06:03:17.559Z,2.00
2022-09-21T06:05:46.938Z,2.70
2022-09-21T06:08:14.805Z,3.30
2022-09-21T06:10:43.162Z,2.50
2022-09-21T06:13:11.071Z,2.57
2022-09-21T06:15:38.979Z,2.57
2022-09-21T06:18:07.119Z,2.60
2022-09-21T06:20:35.612Z,3.33
2022-09-21T06:23:05.656Z,2.63
2022-09-21T06:25:33.488Z,2.90
2022-09-21T06:28:04.330Z,3.30
2022-09-21T06:30:33.121Z,2.97
2022-09-21T06:33:01.574Z,2.73
2022-09-21T06:35:29.460Z,3.37
2022-09-21T06:38:00.665Z,3.20
2022-09-21T06:40:31.438Z,2.80
2022-09-21T06:42:59.974Z,2.40
2022-09-21T06:45:28.249Z,2.80
2022-09-21T06:47:56.152Z,2.53
2022-09-21T06:50:24.610Z,2.27
2022-09-21T06:52:52.446Z,2.63
2022-09-21T06:55:20.260Z,3.20
2022-09-21T06:57:50.928Z,2.80
2022-09-21T07:00:18.768Z,2.90
2022-09-21T07:02:46.576Z,2.80
2022-09-21T07:05:14.613Z,3.20
2022-09-21T07:07:42.629Z,2.37
2022-09-21T07:10:15.898Z,3.33
2022-09-21T07:12:46.339Z,3.70
2022-09-21T07:15:15.495Z,3.10
2022-09-21T07:17:50.337Z,2.50
2022-09-21T07:20:19.971Z,2.90
2022-09-21T07:22:47.731Z,3.47
2022-09-21T07:25:15.669Z,3.03
2022-09-21T07:27:43.513Z,3.07
2022-09-21T07:30:12.353Z,4.70
2022-09-21T07:32:41.499Z,3.30
2022-09-21T07:35:09.558Z,3.67
2022-09-21T07:37:37.319Z,3.47
2022-09-21T07:40:06.326Z,5.60
2022-09-21T07:42:34.119Z,4.37
2022-09-21T07:45:04.202Z,4.30
2022-09-21T07:47:32.436Z,3.30
2022-09-21T07:50:01.505Z,3.93
2022-09-21T07:52:29.467Z,4.23
2022-09-21T07:54:57.255Z,3.30
2022-09-21T07:57:57.640Z,4.33
2022-09-21T08:00:29.115Z,4.33
2022-09-21T08:02:59.861Z,3.30
2022-09-21T08:05:29.052Z,3.23
2022-09-21T08:07:57.416Z,3.53
2022-09-21T08:10:28.118Z,3.77
2022-09-21T08:12:55.967Z,2.70
2022-09-21T08:15:46.868Z,2.47
2022-09-21T08:18:11.880Z,3.00
2022-09-21T08:20:41.337Z,2.40
2022-09-21T08:23:09.777Z,2.43
2022-09-21T08:25:37.563Z,2.50
2022-09-21T08:28:09.589Z,1.90
2022-09-21T08:30:37.701Z,2.17
2022-09-21T08:33:06.765Z,2.37
2022-09-21T08:35:34.720Z,1.30
2022-09-21T08:38:03.860Z,1.30
2022-09-21T08:40:32.083Z,1.80
2022-09-21T08:43:04.412Z,1.20
2022-09-21T08:45:36.078Z,1.30
2022-09-21T08:48:06.410Z,1.33
2022-09-21T08:50:38.402Z,1.60
2022-09-21T08:53:14.390Z,1.33
2022-09-21T08:55:42.378Z,1.33
2022-09-21T08:58:21.354Z,1.50
2022-09-21T09:00:52.543Z,1.17
2022-09-21T09:03:52.821Z,1.20
2022-09-21T09:06:30.213Z,1.20
2022-09-21T09:09:19.001Z,1.30
2022-09-21T09:12:00.541Z,1.00
2022-09-21T09:14:54.841Z,1.10
2022-09-21T09:17:33.848Z,1.00
2022-09-21T09:20:06.073Z,1.23
2022-09-21T09:22:40.096Z,0.77
2022-09-21T09:25:19.561Z,0.90
2022-09-21T09:27:49.029Z,0.80
2022-09-21T09:30:19.932Z,1.27
2022-09-21T09:32:54.511Z,0.70
2022-09-21T09:35:27.920Z,0.70
2022-09-21T09:38:00.926Z,1.00
2022-09-21T09:40:56.532Z,0.80
2022-09-21T09:43:36.491Z,0.90
2022-09-21T09:46:13.697Z,0.70
2022-09-21T09:48:59.836Z,0.80
2022-09-21T09:51:27.872Z,0.80
2022-09-21T09:54:00.720Z,0.90
2022-09-21T09:56:31.417Z,1.10
2022-09-21T09:59:06.791Z,1.33
2022-09-21T10:01:39.537Z,1.60
2022-09-21T10:04:10.130Z,0.70
2022-09-21T10:06:43.654Z,0.70
2022-09-21T10:09:27.649Z,0.90
2022-09-21T10:12:00.796Z,1.10
2022-09-21T10:14:33.696Z,0.90
2022-09-21T10:17:05.833Z,0.90
2022-09-21T10:19:33.949Z,0.80
2022-09-21T10:22:03.507Z,1.17
2022-09-21T10:24:34.313Z,1.40
2022-09-21T10:27:12.675Z,1.00
2022-09-21T10:29:42.939Z,0.93
2022-09-21T10:32:22.702Z,1.07
2022-09-21T10:35:17.904Z,0.80
2022-09-21T10:37:48.354Z,1.07
2022-09-21T10:40:26.196Z,1.00
2022-09-21T10:42:58.509Z,0.87
2022-09-21T10:45:27.816Z,0.80
2022-09-21T10:47:58.126Z,0.90
2022-09-21T10:50:31.097Z,0.90
2022-09-21T10:53:03.437Z,0.77
2022-09-21T10:55:33.248Z,0.90
2022-09-21T10:58:02.447Z,0.80
2022-09-21T11:00:35.876Z,0.70
2022-09-21T11:03:25.841Z,0.90
2022-09-21T11:05:56.251Z,0.90
2022-09-21T11:08:29.677Z,0.80
2022-09-21T11:11:09.642Z,1.30
2022-09-21T11:13:47.313Z,0.70
2022-09-21T11:16:19.296Z,0.90
2022-09-21T11:18:53.085Z,0.80
2022-09-21T11:21:27.237Z,1.17
2022-09-21T11:24:03.654Z,0.70
2022-09-21T11:26:40.612Z,0.87
2022-09-21T11:29:16.467Z,0.80
2022-09-21T11:32:06.337Z,0.60
2022-09-21T11:34:55.965Z,0.90
2022-09-21T11:37:40.201Z,1.00
2022-09-21T11:40:20.210Z,0.70
2022-09-21T11:43:01.592Z,0.90
2022-09-21T11:45:57.387Z,0.70
2022-09-21T11:48:33.702Z,0.80
2022-09-21T11:51:14.879Z,0.80
2022-09-21T11:53:58.692Z,0.90
2022-09-21T11:56:36.562Z,0.70
2022-09-21T11:59:18.259Z,1.10
2022-09-21T12:02:05.622Z,0.70
2022-09-21T12:04:43.737Z,0.93
2022-09-21T12:07:24.446Z,0.80
2022-09-21T12:10:18.069Z,0.70
2022-09-21T12:12:54.804Z,0.70
2022-09-21T12:15:30.197Z,0.70
2022-09-21T12:18:05.850Z,0.70
2022-09-21T12:20:43.637Z,0.83
2022-09-21T12:23:17.391Z,0.77
2022-09-21T12:25:51.254Z,0.70
2022-09-21T12:28:24.501Z,0.90
2022-09-21T12:31:00.622Z,0.70
2022-09-21T12:33:35.936Z,0.73
2022-09-21T12:36:10.309Z,0.70
2022-09-21T12:38:44.171Z,0.70
2022-09-21T12:41:18.712Z,0.70
2022-09-21T12:43:52.160Z,0.70
2022-09-21T12:46:23.964Z,0.70
2022-09-21T12:48:54.199Z,0.80
2022-09-21T12:51:27.389Z,1.20
2022-09-21T12:53:59.854Z,0.60
2022-09-21T12:56:37.368Z,0.97
2022-09-21T12:59:15.024Z,0.90
2022-09-21T13:01:47.446Z,0.70
2022-09-21T13:04:38.374Z,0.70
2022-09-21T13:07:51.786Z,0.60
2022-09-21T13:10:23.317Z,0.80
2022-09-21T13:12:56.913Z,0.60
2022-09-21T13:15:27.867Z,0.90
2022-09-21T13:18:01.630Z,0.60
2022-09-21T13:20:36.101Z,0.63
2022-09-21T13:23:04.159Z,0.70
2022-09-21T13:25:37.441Z,0.70
2022-09-21T13:28:24.112Z,0.83
2022-09-21T13:31:40.267Z,0.80
2022-09-21T13:34:23.148Z,0.83
2022-09-21T13:37:32.758Z,0.60
2022-09-21T13:40:41.084Z,0.70
2022-09-21T13:43:46.203Z,0.60
2022-09-21T13:47:02.851Z,0.70
2022-09-21T13:49:46.753Z,0.70
2022-09-21T13:52:29.376Z,0.70
2022-09-21T13:55:00.117Z,0.80
2022-09-21T13:57:33.185Z,0.97
2022-09-21T14:00:25.054Z,0.70
2022-09-21T14:03:03.874Z,0.80
2022-09-21T14:05:36.552Z,0.60
2022-09-21T14:08:08.148Z,0.63
2022-09-21T14:10:38.986Z,0.60
2022-09-21T14:13:25.620Z,0.70
2022-09-21T14:15:54.814Z,0.60
2022-09-21T14:18:38.589Z,0.70
2022-09-21T14:21:21.023Z,0.60
2022-09-21T14:24:21.133Z,0.60
2022-09-21T14:26:55.139Z,0.70
2022-09-21T14:29:26.560Z,0.60
2022-09-21T14:31:57.952Z,0.67
2022-09-21T14:34:28.188Z,0.63
2022-09-21T14:36:59.734Z,0.60
2022-09-21T14:39:36.538Z,0.70
2022-09-21T14:42:12.318Z,0.60
2022-09-21T14:44:42.300Z,0.70
2022-09-21T14:47:34.122Z,0.70
2022-09-21T14:50:19.068Z,0.83
2022-09-21T14:53:15.107Z,0.90
2022-09-21T14:55:55.993Z,0.80
2022-09-21T14:58:35.926Z,0.67
2022-09-21T15:01:22.393Z,0.70
2022-09-21T15:04:09.053Z,0.90
2022-09-21T15:06:58.827Z,0.67
2022-09-21T15:10:02.612Z,0.60
2022-09-21T15:12:40.741Z,0.70
2022-09-21T15:15:24.168Z,0.80
2022-09-21T15:17:57.347Z,0.90
2022-09-21T15:20:31.027Z,0.77
2022-09-21T15:23:00.695Z,0.97
2022-09-21T15:25:33.038Z,0.80
2022-09-21T15:28:01.121Z,0.73
2022-09-21T15:30:33.075Z,0.80
2022-09-21T15:33:02.208Z,0.73
2022-09-21T15:35:33.674Z,0.70
2022-09-21T15:38:01.988Z,0.80
2022-09-21T15:40:32.796Z,0.73
2022-09-21T15:43:06.347Z,0.77
2022-09-21T15:45:42.131Z,0.80
2022-09-21T15:48:12.637Z,0.80
2022-09-21T15:50:43.470Z,0.80
2022-09-21T15:53:19.509Z,0.70
2022-09-21T15:55:48.512Z,0.60
2022-09-21T15:58:37.097Z,0.80
2022-09-21T16:01:11.125Z,0.93
2022-09-21T16:03:40.127Z,0.90
2022-09-21T16:06:27.829Z,0.80
2022-09-21T16:08:56.176Z,1.07
2022-09-21T16:11:37.579Z,0.70
2022-09-21T16:14:29.021Z,0.70
2022-09-21T16:17:23.671Z,0.90
2022-09-21T16:20:27.183Z,0.90
2022-09-21T16:23:06.304Z,0.93
2022-09-21T16:25:36.992Z,1.10
2022-09-21T16:28:09.637Z,0.93
2022-09-21T16:30:46.687Z,0.87
2022-09-21T16:33:37.804Z,0.80
2022-09-21T16:36:29.482Z,0.83
2022-09-21T16:38:59.970Z,1.20
2022-09-21T16:41:34.700Z,0.80
2022-09-21T16:44:03.191Z,0.70
2022-09-21T16:46:32.129Z,0.87
2022-09-21T16:49:00.609Z,0.87
2022-09-21T16:51:28.989Z,0.93
2022-09-21T16:53:58.414Z,0.90
2022-09-21T16:56:26.996Z,0.93
2022-09-21T16:58:54.752Z,0.80
2022-09-21T17:01:22.637Z,0.93
2022-09-21T17:03:50.419Z,1.10
2022-09-21T17:06:19.883Z,1.30
2022-09-21T17:08:48.572Z,0.90
2022-09-21T17:11:19.867Z,1.10
2022-09-21T17:13:47.850Z,0.90
2022-09-21T17:16:19.536Z,0.90
2022-09-21T17:18:48.584Z,1.43
2022-09-21T17:21:20.459Z,1.03
2022-09-21T17:23:48.340Z,1.03
2022-09-21T17:26:20.953Z,1.10
2022-09-21T17:28:48.699Z,0.97
2022-09-21T17:31:17.412Z,1.10
2022-09-21T17:33:47.701Z,1.30
2022-09-21T17:36:16.239Z,1.03
2022-09-21T17:38:44.854Z,1.10
2022-09-21T17:41:24.191Z,1.27
2022-09-21T17:44:00.808Z,1.20
2022-09-21T17:46:41.556Z,1.10
2022-09-21T17:49:10.860Z,0.90
2022-09-21T17:51:56.791Z,1.13
2022-09-21T17:54:25.181Z,1.10
2022-09-21T17:56:59.951Z,1.00
2022-09-21T17:59:32.572Z,0.80
2022-09-21T18:02:01.328Z,1.03
2022-09-21T18:04:32.896Z,1.13
2022-09-21T18:07:01.162Z,1.37
2022-09-21T18:09:29.465Z,1.20
2022-09-21T18:12:14.560Z,1.07
2022-09-21T18:14:53.027Z,1.10
2022-09-21T18:17:39.275Z,1.03
2022-09-21T18:20:24.131Z,1.10
2022-09-21T18:22:59.265Z,1.40
2022-09-21T18:25:30.717Z,1.17
2022-09-21T18:28:04.246Z,1.37
2022-09-21T18:30:33.293Z,1.23
2022-09-21T18:33:13.257Z,1.23
2022-09-21T18:36:04.524Z,1.20
2022-09-21T18:38:36.278Z,1.33
2022-09-21T18:41:12.724Z,1.40
2022-09-21T18:43:57.761Z,1.37
2022-09-21T18:46:33.326Z,1.43
2022-09-21T18:49:06.659Z,1.40
2022-09-21T18:51:41.277Z,1.67
2022-09-21T18:54:15.896Z,1.50
2022-09-21T18:56:43.804Z,1.57
2022-09-21T18:59:14.605Z,1.37
2022-09-21T19:01:43.170Z,1.20
2022-09-21T19:04:12.509Z,1.40
2022-09-21T19:06:46.715Z,1.30
2022-09-21T19:09:32.608Z,1.03
2022-09-21T19:12:11.585Z,1.20
2022-09-21T19:14:50.219Z,1.33
2022-09-21T19:17:33.833Z,1.27
2022-09-21T19:20:27.566Z,1.13
2022-09-21T19:23:06.131Z,1.60
2022-09-21T19:25:47.247Z,1.00
2022-09-21T19:28:37.251Z,1.00
2022-09-21T19:31:19.341Z,1.00
2022-09-21T19:33:50.849Z,1.20
2022-09-21T19:36:19.705Z,1.53
2022-09-21T19:38:47.939Z,1.13
2022-09-21T19:41:36.124Z,1.50
2022-09-21T19:44:15.198Z,1.40
2022-09-21T19:46:51.949Z,1.30
2022-09-21T19:49:21.559Z,1.17
2022-09-21T19:51:51.303Z,1.33
2022-09-21T19:54:40.131Z,1.17
2022-09-21T19:57:31.983Z,1.20
2022-09-21T20:00:00.652Z,1.80
2022-09-21T20:02:32.768Z,1.40
2022-09-21T20:05:06.560Z,1.70
2022-09-21T20:07:44.336Z,1.37
2022-09-21T20:10:41.989Z,1.67
2022-09-21T20:13:20.749Z,2.23
2022-09-21T20:15:52.915Z,2.10
2022-09-21T20:18:30.386Z,2.10
2022-09-21T20:20:58.805Z,1.97
2022-09-21T20:23:27.076Z,2.07
2022-09-21T20:25:59.834Z,1.73
2022-09-21T20:28:28.101Z,1.80
2022-09-21T20:30:55.955Z,2.27
2022-09-21T20:33:26.847Z,2.10
2022-09-21T20:35:55.336Z,1.97
2022-09-21T20:38:23.148Z,3.10
2022-09-21T20:40:51.486Z,2.90
2022-09-21T20:43:21.840Z,2.77
2022-09-21T20:45:50.194Z,1.63
2022-09-21T20:48:18.344Z,2.03
2022-09-21T20:50:49.139Z,2.03
2022-09-21T20:53:17.253Z,2.03
2022-09-21T20:55:54.041Z,1.93
2022-09-21T20:58:22.162Z,1.90
2022-09-21T21:00:49.931Z,1.90
2022-09-21T21:03:18.385Z,1.57
2022-09-21T21:05:47.447Z,2.00
2022-09-21T21:08:15.152Z,1.40
2022-09-21T21:10:46.518Z,1.47
2022-09-21T21:13:14.281Z,2.03
2022-09-21T21:15:42.075Z,1.53
2022-09-21T21:18:11.208Z,1.90
2022-09-21T21:20:40.885Z,1.80
2022-09-21T21:23:10.067Z,1.50
2022-09-21T21:25:37.807Z,1.30
2022-09-21T21:28:05.704Z,1.57
2022-09-21T21:30:33.468Z,1.50
2022-09-21T21:33:01.716Z,1.80
2022-09-21T21:35:30.104Z,1.60
2022-09-21T21:37:58.713Z,1.43
2022-09-21T21:40:27.845Z,1.37
2022-09-21T21:42:57.030Z,1.43
2022-09-21T21:45:24.860Z,1.77
2022-09-21T21:47:52.603Z,2.20
2022-09-21T21:50:20.324Z,1.80
2022-09-21T21:52:48.068Z,2.23
2022-09-21T21:55:15.843Z,1.60
2022-09-21T21:57:44.935Z,2.07
2022-09-21T22:00:14.113Z,1.73
2022-09-21T22:02:41.982Z,1.97
2022-09-21T22:05:10.541Z,2.03
2022-09-21T22:07:39.962Z,1.43
2022-09-21T22:10:09.081Z,1.60
2022-09-21T22:12:36.816Z,2.23
2022-09-21T22:15:08.396Z,2.07
2022-09-21T22:17:36.176Z,1.97
2022-09-21T22:20:04.038Z,1.87
2022-09-21T22:22:31.796Z,2.40
2022-09-21T22:24:59.562Z,2.53
2022-09-21T22:27:27.261Z,1.67
2022-09-21T22:29:54.996Z,2.23
2022-09-21T22:32:25.293Z,2.17
2022-09-21T22:34:53.310Z,2.07
2022-09-21T22:37:21.029Z,2.00
2022-09-21T22:39:48.896Z,1.90
2022-09-21T22:42:16.625Z,2.33
2022-09-21T22:44:44.405Z,1.43
2022-09-21T22:47:12.145Z,1.80
2022-09-21T22:49:41.266Z,1.87
2022-09-21T22:52:09.001Z,1.70
2022-09-21T22:54:36.761Z,1.77
2022-09-21T22:57:05.027Z,1.60
2022-09-21T23:02:11.459Z,1.80
2022-09-21T23:04:40.711Z,2.03
2022-09-21T23:07:08.453Z,2.47
2022-09-21T23:09:36.257Z,2.10
2022-09-21T23:12:04.154Z,2.30
2022-09-21T23:14:31.909Z,1.93
2022-09-21T23:16:59.686Z,1.80
2022-09-21T23:19:27.416Z,2.63
2022-09-21T23:21:57.601Z,1.90
2022-09-21T23:24:25.534Z,2.10
2022-09-21T23:26:53.342Z,2.00
2022-09-21T23:29:21.617Z,2.07
2022-09-21T23:31:49.488Z,1.73
2022-09-21T23:34:17.775Z,1.67
2022-09-21T23:36:48.164Z,2.03
2022-09-21T23:39:17.265Z,1.70
2022-09-21T23:41:45.357Z,2.03
2022-09-21T23:44:13.302Z,2.00
2022-09-21T23:46:41.519Z,1.83
2022-09-21T23:49:09.628Z,1.90
2022-09-21T23:51:37.456Z,2.17
2022-09-21T23:54:05.580Z,1.90
2022-09-21T23:56:34.987Z,1.67
2022-09-21T23:59:02.728Z,1.73
